createdAt,value
2023-02-21T00:02:11.049Z,7.33
2023-02-21T00:04:58.206Z,11.50
2023-02-21T00:07:44.987Z,13.57
2023-02-21T00:10:33.659Z,11.37
2023-02-21T00:13:20.079Z,10.47
2023-02-21T00:16:06.550Z,12.90
2023-02-21T00:18:56.354Z,7.70
2023-02-21T00:21:43.095Z,9.67
2023-02-21T00:24:33.049Z,10.90
2023-02-21T00:27:19.316Z,8.73
2023-02-21T00:30:06.605Z,10.47
2023-02-21T00:32:52.720Z,9.40
2023-02-21T00:35:40.362Z,12.87
2023-02-21T00:38:26.858Z,8.27
2023-02-21T00:41:12.807Z,8.40
2023-02-21T00:43:59.890Z,8.07
2023-02-21T00:46:46.099Z,9.07
2023-02-21T00:49:33.223Z,8.90
2023-02-21T00:52:20.876Z,8.17
2023-02-21T00:55:06.585Z,14.60
2023-02-21T00:57:51.955Z,10.63
2023-02-21T01:00:39.593Z,8.17
2023-02-21T01:03:26.941Z,8.40
2023-02-21T01:06:16.124Z,10.47
2023-02-21T01:09:05.450Z,7.67
2023-02-21T01:11:52.941Z,9.60
2023-02-21T01:14:39.052Z,17.03
2023-02-21T01:17:25.870Z,7.03
2023-02-21T01:20:12.494Z,9.60
2023-02-21T01:22:58.752Z,8.20
2023-02-21T01:25:46.634Z,13.60
2023-02-21T01:28:32.361Z,16.20
2023-02-21T01:31:23.292Z,12.27
2023-02-21T01:34:08.774Z,11.53
2023-02-21T01:36:54.164Z,10.97
2023-02-21T01:39:40.184Z,10.60
2023-02-21T01:42:29.708Z,15.00
2023-02-21T01:46:04.670Z,11.33
2023-02-21T01:48:53.783Z,7.97
2023-02-21T01:51:46.358Z,6.97
2023-02-21T01:54:32.175Z,7.43
2023-02-21T01:57:20.611Z,9.67
2023-02-21T02:00:10.408Z,9.17
2023-02-21T02:03:11.316Z,13.47
2023-02-21T02:05:58.362Z,11.90
2023-02-21T02:08:48.030Z,8.87
2023-02-21T02:11:45.231Z,12.50
2023-02-21T02:14:44.809Z,9.63
2023-02-21T02:17:25.378Z,10.00
2023-02-21T02:20:12.275Z,9.27
2023-02-21T02:22:59.441Z,12.33
2023-02-21T02:25:42.885Z,14.20
2023-02-21T02:28:38.025Z,12.40
2023-02-21T02:31:48.645Z,9.83
2023-02-21T02:34:43.207Z,9.23
2023-02-21T02:37:20.105Z,16.90
2023-02-21T02:39:53.216Z,11.60
2023-02-21T02:42:34.904Z,11.27
2023-02-21T02:45:13.924Z,15.20
2023-02-21T02:47:45.526Z,11.80
2023-02-21T02:50:17.852Z,13.03
2023-02-21T02:52:55.134Z,17.30
2023-02-21T02:55:36.201Z,13.50
2023-02-21T02:58:05.110Z,14.53
2023-02-21T03:00:36.156Z,14.30
2023-02-21T03:03:23.388Z,9.97
2023-02-21T03:06:03.031Z,11.47
2023-02-21T03:08:44.110Z,10.80
2023-02-21T03:11:18.294Z,10.50
2023-02-21T03:13:50.565Z,9.93
2023-02-21T03:16:26.890Z,9.50
2023-02-21T03:19:02.777Z,13.87
2023-02-21T03:21:39.788Z,11.90
2023-02-21T03:24:11.893Z,17.00
2023-02-21T03:26:43.914Z,10.07
2023-02-21T03:29:33.993Z,14.67
2023-02-21T03:32:11.954Z,14.77
2023-02-21T03:34:41.039Z,14.30
2023-02-21T03:37:23.033Z,13.93
2023-02-21T03:39:51.946Z,15.03
2023-02-21T03:42:20.856Z,11.30
2023-02-21T03:44:49.787Z,10.50
2023-02-21T03:47:18.377Z,14.20
2023-02-21T03:49:49.363Z,12.93
2023-02-21T03:52:19.888Z,13.20
2023-02-21T03:54:49.101Z,11.83
2023-02-21T03:57:21.158Z,13.33
2023-02-21T03:59:52.199Z,9.37
2023-02-21T04:02:20.944Z,11.33
2023-02-21T04:04:50.058Z,11.00
2023-02-21T04:07:22.609Z,12.70
2023-02-21T04:09:52.258Z,5.83
2023-02-21T04:12:27.899Z,9.63
2023-02-21T04:15:00.973Z,12.30
2023-02-21T04:17:29.992Z,12.63
2023-02-21T04:20:00.502Z,13.10
2023-02-21T04:22:30.552Z,14.77
2023-02-21T04:24:59.438Z,11.77
2023-02-21T04:27:28.151Z,13.53
2023-02-21T04:29:58.417Z,11.87
2023-02-21T04:32:28.128Z,12.73
2023-02-21T04:34:57.738Z,12.83
2023-02-21T04:37:26.636Z,12.33
2023-02-21T04:39:57.455Z,11.50
2023-02-21T04:42:25.743Z,11.97
2023-02-21T04:45:00.136Z,14.17
2023-02-21T04:47:30.382Z,10.47
2023-02-21T04:49:58.919Z,13.93
2023-02-21T04:52:27.544Z,11.50
2023-02-21T04:54:57.389Z,12.87
2023-02-21T04:57:26.552Z,12.50
2023-02-21T04:59:59.102Z,10.23
2023-02-21T05:02:28.810Z,13.43
2023-02-21T05:04:57.185Z,14.43
2023-02-21T05:07:28.453Z,10.80
2023-02-21T05:09:58.616Z,14.17
2023-02-21T05:12:27.096Z,11.97
2023-02-21T05:14:56.048Z,10.30
2023-02-21T05:17:25.716Z,14.47
2023-02-21T05:19:55.268Z,14.80
2023-02-21T05:22:23.818Z,20.80
2023-02-21T05:24:52.306Z,38.90
2023-02-21T05:27:23.142Z,38.20
2023-02-21T05:29:54.260Z,32.27
2023-02-21T05:32:24.482Z,29.63
2023-02-21T05:34:55.262Z,20.67
2023-02-21T05:37:23.704Z,22.60
2023-02-21T05:39:52.335Z,26.33
2023-02-21T05:42:22.090Z,42.57
2023-02-21T05:44:50.424Z,31.17
2023-02-21T05:47:19.150Z,25.20
2023-02-21T05:49:47.539Z,29.13
2023-02-21T05:52:18.280Z,24.40
2023-02-21T05:54:46.976Z,29.70
2023-02-21T05:57:15.269Z,29.60
2023-02-21T05:59:48.098Z,28.10
2023-02-21T06:02:16.850Z,54.23
2023-02-21T06:04:45.216Z,18.63
2023-02-21T06:07:13.661Z,32.70
2023-02-21T06:09:41.978Z,42.13
2023-02-21T06:12:10.286Z,48.00
2023-02-21T06:14:39.213Z,37.30
2023-02-21T06:17:09.528Z,38.20
2023-02-21T06:19:38.251Z,22.27
2023-02-21T06:22:07.539Z,27.40
2023-02-21T06:24:36.135Z,28.60
2023-02-21T06:27:05.353Z,41.43
2023-02-21T06:29:33.707Z,65.33
2023-02-21T06:32:02.528Z,68.13
2023-02-21T06:34:33.402Z,124.97
2023-02-21T06:37:02.130Z,18.30
2023-02-21T06:39:30.657Z,16.20
2023-02-21T06:41:59.905Z,28.07
2023-02-21T06:44:28.807Z,21.90
2023-02-21T06:46:57.549Z,42.60
2023-02-21T06:49:26.249Z,21.80
2023-02-21T06:51:56.693Z,28.20
2023-02-21T06:54:25.674Z,36.90
2023-02-21T06:56:54.587Z,27.00
2023-02-21T06:59:22.960Z,21.93
2023-02-21T07:01:51.666Z,26.90
2023-02-21T07:04:20.426Z,20.93
2023-02-21T07:06:49.062Z,25.03
2023-02-21T07:09:19.404Z,25.80
2023-02-21T07:11:48.036Z,80.77
2023-02-21T07:14:16.932Z,126.63
2023-02-21T07:16:45.336Z,224.97
2023-02-21T07:21:44.784Z,145.57
2023-02-21T07:24:13.357Z,57.57
2023-02-21T07:26:43.464Z,54.10
2023-02-21T07:29:12.091Z,119.07
2023-02-21T07:31:40.655Z,49.93
2023-02-21T07:34:09.433Z,102.30
2023-02-21T07:36:40.307Z,98.13
2023-02-21T07:39:10.294Z,47.57
2023-02-21T07:41:38.773Z,91.00
2023-02-21T07:44:10.328Z,83.37
2023-02-21T07:46:42.241Z,122.53
2023-02-21T07:49:10.581Z,59.03
2023-02-21T07:51:38.943Z,46.77
2023-02-21T07:54:07.496Z,64.40
2023-02-21T07:56:36.084Z,41.17
2023-02-21T07:59:05.669Z,45.57
2023-02-21T08:01:35.727Z,63.10
2023-02-21T08:04:04.621Z,81.03
2023-02-21T08:06:34.883Z,73.30
2023-02-21T08:09:03.590Z,108.33
2023-02-21T08:11:32.949Z,158.40
2023-02-21T08:14:01.956Z,161.50
2023-02-21T08:16:30.298Z,87.27
2023-02-21T08:19:00.382Z,144.90
2023-02-21T08:21:29.101Z,125.40
2023-02-21T08:23:58.825Z,104.07
2023-02-21T08:26:27.355Z,53.50
2023-02-21T08:28:55.962Z,50.60
2023-02-21T08:31:24.742Z,85.10
2023-02-21T08:33:54.012Z,88.20
2023-02-21T08:36:25.914Z,65.43
2023-02-21T08:38:54.212Z,93.53
2023-02-21T08:41:22.474Z,109.20
2023-02-21T08:43:51.046Z,114.73
2023-02-21T08:46:20.170Z,84.13
2023-02-21T08:48:48.842Z,67.10
2023-02-21T08:51:18.490Z,43.53
2023-02-21T08:53:48.343Z,58.80
2023-02-21T08:56:23.912Z,42.97
2023-02-21T08:58:54.099Z,92.30
2023-02-21T09:01:23.867Z,167.87
2023-02-21T09:03:54.229Z,76.20
2023-02-21T09:06:22.506Z,42.53
2023-02-21T09:08:53.475Z,66.07
2023-02-21T09:11:22.060Z,57.27
2023-02-21T09:13:50.884Z,51.87
2023-02-21T09:16:20.335Z,54.83
2023-02-21T09:18:56.810Z,52.20
2023-02-21T09:21:25.987Z,35.90
2023-02-21T09:23:59.211Z,45.60
2023-02-21T09:26:31.809Z,38.30
2023-02-21T09:29:00.377Z,32.40
2023-02-21T09:31:29.531Z,45.00
2023-02-21T09:33:58.885Z,78.73
2023-02-21T09:36:28.335Z,23.17
2023-02-21T09:38:59.983Z,26.10
2023-02-21T09:41:29.092Z,19.97
2023-02-21T09:43:57.606Z,29.30
2023-02-21T09:46:35.664Z,30.00
2023-02-21T09:49:06.394Z,31.03
2023-02-21T09:51:37.159Z,49.37
2023-02-21T09:54:08.707Z,40.37
2023-02-21T09:56:43.089Z,48.87
2023-02-21T09:59:13.639Z,35.93
2023-02-21T10:01:54.427Z,22.10
2023-02-21T10:04:34.303Z,13.67
2023-02-21T10:07:09.456Z,14.80
2023-02-21T10:09:47.002Z,20.40
2023-02-21T10:12:29.346Z,18.33
2023-02-21T10:15:16.618Z,32.17
2023-02-21T10:17:51.674Z,27.43
2023-02-21T10:20:28.185Z,18.83
2023-02-21T10:22:57.493Z,20.10
2023-02-21T10:25:31.680Z,23.73
2023-02-21T10:28:03.625Z,19.70
2023-02-21T10:30:36.683Z,31.30
2023-02-21T10:33:10.002Z,19.57
2023-02-21T10:35:40.362Z,17.73
2023-02-21T10:38:15.382Z,16.00
2023-02-21T10:40:47.916Z,20.80
2023-02-21T10:43:20.996Z,25.13
2023-02-21T10:45:54.805Z,18.10
2023-02-21T10:48:26.747Z,20.30
2023-02-21T10:51:08.209Z,16.90
2023-02-21T10:53:39.129Z,18.07
2023-02-21T10:56:24.912Z,19.60
2023-02-21T10:58:57.020Z,18.50
2023-02-21T11:01:35.460Z,19.80
2023-02-21T11:04:08.094Z,19.70
2023-02-21T11:06:42.286Z,19.60
2023-02-21T11:09:31.881Z,16.63
2023-02-21T11:12:17.564Z,15.63
2023-02-21T11:14:47.570Z,16.60
2023-02-21T11:17:19.334Z,16.73
2023-02-21T11:19:53.347Z,22.40
2023-02-21T11:22:25.448Z,30.27
2023-02-21T11:25:05.694Z,18.70
2023-02-21T11:27:38.040Z,17.10
2023-02-21T11:30:17.742Z,23.70
2023-02-21T11:32:53.783Z,20.97
2023-02-21T11:35:27.285Z,27.40
2023-02-21T11:37:57.754Z,18.27
2023-02-21T11:40:32.395Z,26.50
2023-02-21T11:43:29.920Z,26.07
2023-02-21T11:46:11.955Z,22.60
2023-02-21T11:48:47.262Z,18.00
2023-02-21T11:51:28.038Z,24.53
2023-02-21T11:53:56.924Z,19.80
2023-02-21T11:56:35.839Z,21.80
2023-02-21T11:59:17.926Z,23.90
2023-02-21T12:01:57.208Z,22.43
2023-02-21T12:04:47.932Z,23.00
2023-02-21T12:07:21.338Z,19.70
2023-02-21T12:09:56.420Z,19.40
2023-02-21T12:12:38.934Z,16.13
2023-02-21T12:15:25.662Z,18.73
2023-02-21T12:18:07.626Z,15.93
2023-02-21T12:20:56.269Z,19.00
2023-02-21T12:23:30.905Z,15.40
2023-02-21T12:26:14.625Z,11.03
2023-02-21T12:29:00.737Z,12.20
2023-02-21T12:31:46.254Z,10.07
2023-02-21T12:34:26.296Z,13.50
2023-02-21T12:37:10.830Z,12.50
2023-02-21T12:39:59.456Z,11.57
2023-02-21T12:42:43.499Z,12.20
2023-02-21T12:45:30.617Z,11.07
2023-02-21T12:48:05.595Z,13.93
2023-02-21T12:50:38.293Z,10.73
2023-02-21T12:53:12.553Z,12.03
2023-02-21T12:55:44.468Z,14.43
2023-02-21T12:58:19.851Z,11.80
2023-02-21T13:00:53.035Z,11.43
2023-02-21T13:03:37.741Z,9.47
2023-02-21T13:06:15.302Z,8.67
2023-02-21T13:08:55.335Z,6.23
2023-02-21T13:11:28.697Z,11.73
2023-02-21T13:13:59.632Z,8.70
2023-02-21T13:16:30.999Z,9.03
2023-02-21T13:19:05.733Z,10.60
2023-02-21T13:21:49.549Z,11.67
2023-02-21T13:24:31.366Z,7.93
2023-02-21T13:27:22.209Z,10.07
2023-02-21T13:29:51.219Z,9.37
2023-02-21T13:32:21.514Z,9.13
2023-02-21T13:34:57.281Z,10.87
2023-02-21T13:37:29.612Z,7.80
2023-02-21T13:40:07.763Z,11.60
2023-02-21T13:42:39.969Z,10.37
2023-02-21T13:45:20.397Z,8.10
2023-02-21T13:48:19.280Z,9.07
2023-02-21T13:50:53.592Z,9.50
2023-02-21T13:53:24.002Z,12.13
2023-02-21T13:56:41.578Z,10.83
2023-02-21T13:59:33.147Z,9.00
2023-02-21T14:02:30.742Z,11.10
2023-02-21T14:05:09.001Z,12.10
2023-02-21T14:08:14.118Z,10.87
2023-02-21T14:10:47.983Z,8.77
2023-02-21T14:13:24.368Z,14.37
2023-02-21T14:16:02.116Z,11.40
2023-02-21T14:18:38.261Z,10.17
2023-02-21T14:21:11.202Z,8.83
2023-02-21T14:23:44.747Z,10.60
2023-02-21T14:26:40.721Z,8.97
2023-02-21T14:29:17.237Z,9.27
2023-02-21T14:32:05.027Z,8.90
2023-02-21T14:34:37.671Z,9.03
2023-02-21T14:37:17.352Z,10.97
2023-02-21T14:39:54.895Z,8.43
2023-02-21T14:42:50.007Z,10.80
2023-02-21T14:45:33.082Z,12.90
2023-02-21T14:48:20.076Z,8.13
2023-02-21T14:51:19.676Z,9.07
2023-02-21T14:54:10.745Z,8.13
2023-02-21T14:56:50.985Z,14.17
2023-02-21T14:59:52.292Z,10.27
2023-02-21T15:02:29.551Z,9.60
2023-02-21T15:05:07.456Z,13.03
2023-02-21T15:07:47.000Z,8.80
2023-02-21T15:10:20.895Z,8.90
2023-02-21T15:12:52.150Z,13.40
2023-02-21T15:15:24.262Z,18.00
2023-02-21T15:18:04.833Z,9.67
2023-02-21T15:20:35.695Z,5.60
2023-02-21T15:23:13.717Z,7.60
2023-02-21T15:25:45.924Z,10.93
2023-02-21T15:28:35.475Z,11.87
2023-02-21T15:31:08.239Z,9.00
2023-02-21T15:33:40.735Z,7.17
2023-02-21T15:36:17.154Z,10.20
2023-02-21T15:38:50.229Z,9.40
2023-02-21T15:41:31.162Z,10.13
2023-02-21T15:44:04.883Z,9.67
2023-02-21T15:46:41.973Z,10.40
2023-02-21T15:49:20.102Z,7.33
2023-02-21T15:51:50.461Z,7.03
2023-02-21T15:54:27.394Z,7.90
2023-02-21T15:57:04.462Z,7.93
2023-02-21T15:59:34.798Z,9.77
2023-02-21T16:02:16.102Z,7.77
2023-02-21T16:04:47.331Z,6.67
2023-02-21T16:07:21.071Z,9.83
2023-02-21T16:09:52.220Z,5.93
2023-02-21T16:12:29.906Z,7.10
2023-02-21T16:15:02.100Z,5.03
2023-02-21T16:17:33.983Z,5.30
2023-02-21T16:20:17.584Z,5.63
2023-02-21T16:25:39.677Z,4.77
2023-02-21T16:28:14.421Z,6.70
2023-02-21T16:30:46.688Z,5.40
2023-02-21T16:33:15.508Z,5.63
2023-02-21T16:35:45.542Z,4.43
2023-02-21T16:38:16.738Z,4.13
2023-02-21T16:40:47.258Z,3.93
2023-02-21T16:43:19.592Z,4.03
2023-02-21T16:45:49.861Z,3.23
2023-02-21T16:52:01.592Z,3.10
2023-02-21T16:54:30.407Z,5.77
2023-02-21T16:57:06.334Z,9.10
2023-02-21T16:59:54.267Z,4.73
2023-02-21T17:02:25.083Z,6.80
2023-02-21T17:05:21.386Z,4.93
2023-02-21T17:08:17.816Z,10.20
2023-02-21T17:17:53.427Z,5.40
2023-02-21T17:20:40.936Z,5.10
2023-02-21T17:27:06.011Z,7.70
2023-02-21T17:29:36.530Z,6.57
2023-02-21T17:32:11.774Z,5.03
2023-02-21T17:38:01.832Z,4.23
2023-02-21T17:40:48.362Z,3.80
2023-02-21T17:43:18.035Z,4.87
2023-02-21T17:45:48.999Z,4.90
2023-02-21T17:48:23.435Z,3.50
2023-02-21T17:50:54.673Z,4.07
2023-02-21T17:53:26.605Z,3.40
2023-02-21T17:56:27.442Z,2.87
2023-02-21T17:59:37.521Z,10.23
2023-02-21T18:07:15.069Z,3.53
2023-02-21T18:10:14.917Z,6.10
2023-02-21T18:12:44.716Z,2.93
2023-02-21T18:15:15.515Z,3.60
2023-02-21T18:17:44.468Z,4.80
2023-02-21T18:20:15.127Z,3.97
2023-02-21T18:22:48.003Z,3.00
2023-02-21T18:25:35.309Z,4.00
2023-02-21T18:28:07.201Z,3.73
2023-02-21T18:30:35.624Z,7.00
2023-02-21T18:33:05.327Z,7.60
2023-02-21T18:35:41.405Z,3.50
2023-02-21T18:38:11.826Z,3.00
2023-02-21T18:40:45.565Z,3.50
2023-02-21T18:43:21.316Z,5.77
2023-02-21T18:45:51.533Z,3.73
2023-02-21T18:48:35.850Z,7.60
2023-02-21T18:51:17.676Z,4.40
2023-02-21T18:54:22.075Z,4.93
2023-02-21T18:57:09.549Z,4.03
2023-02-21T18:59:50.157Z,4.00
2023-02-21T19:02:22.499Z,4.57
2023-02-21T19:04:56.692Z,3.13
2023-02-21T19:07:37.020Z,3.67
2023-02-21T19:10:41.209Z,2.67
2023-02-21T19:13:13.422Z,4.87
2023-02-21T19:16:15.452Z,3.00
2023-02-21T19:18:44.328Z,3.67
2023-02-21T19:21:13.077Z,6.23
2023-02-21T19:23:47.358Z,7.23
2023-02-21T19:26:21.940Z,7.03
2023-02-21T19:28:59.129Z,5.43
2023-02-21T19:31:38.045Z,3.97
2023-02-21T19:34:06.730Z,4.30
2023-02-21T19:36:43.508Z,6.13
2023-02-21T19:39:37.362Z,4.90
2023-02-21T19:42:09.156Z,3.50
2023-02-21T19:44:54.232Z,5.40
2023-02-21T19:47:42.998Z,3.80
2023-02-21T19:50:38.304Z,5.83
2023-02-21T19:53:07.338Z,6.73
2023-02-21T19:55:35.716Z,4.23
2023-02-21T19:58:07.388Z,7.13
2023-02-21T20:00:39.906Z,4.40
2023-02-21T20:03:09.991Z,5.47
2023-02-21T20:05:49.430Z,3.60
2023-02-21T20:08:33.662Z,4.40
2023-02-21T20:11:15.115Z,5.40
2023-02-21T20:13:44.012Z,4.90
2023-02-21T20:16:15.651Z,5.37
2023-02-21T20:18:45.999Z,4.60
2023-02-21T20:21:19.717Z,2.77
2023-02-21T20:23:49.679Z,4.77
2023-02-21T20:26:19.234Z,4.03
2023-02-21T20:28:49.287Z,6.37
2023-02-21T20:31:18.863Z,6.87
2023-02-21T20:33:48.982Z,6.47
2023-02-21T20:36:18.894Z,5.70
2023-02-21T20:38:47.837Z,4.53
2023-02-21T20:41:18.157Z,3.37
2023-02-21T20:43:52.517Z,8.30
2023-02-21T20:46:25.173Z,4.30
2023-02-21T20:48:55.540Z,7.87
2023-02-21T20:51:30.021Z,8.17
2023-02-21T20:54:00.473Z,6.00
2023-02-21T20:56:34.070Z,7.63
2023-02-21T20:59:05.072Z,6.93
2023-02-21T21:01:35.331Z,4.87
2023-02-21T21:04:08.340Z,3.70
2023-02-21T21:06:36.879Z,3.50
2023-02-21T21:09:05.597Z,3.80
2023-02-21T21:11:35.247Z,6.30
2023-02-21T21:14:04.085Z,5.37
2023-02-21T21:16:34.611Z,7.97
2023-02-21T21:19:05.388Z,6.43
2023-02-21T21:21:34.391Z,6.27
2023-02-21T21:24:07.445Z,5.90
2023-02-21T21:26:36.210Z,10.50
2023-02-21T21:29:09.537Z,7.33
2023-02-21T21:31:39.509Z,6.80
2023-02-21T21:34:09.314Z,5.27
2023-02-21T21:36:38.559Z,6.80
2023-02-21T21:39:07.395Z,5.10
2023-02-21T21:41:37.790Z,7.63
2023-02-21T21:44:07.996Z,7.20
2023-02-21T21:46:39.393Z,8.63
2023-02-21T21:49:10.811Z,7.20
2023-02-21T21:51:39.044Z,8.07
2023-02-21T21:54:07.395Z,7.77
2023-02-21T21:56:36.208Z,7.40
2023-02-21T21:59:04.697Z,10.70
2023-02-21T22:01:34.054Z,6.50
2023-02-21T22:04:02.804Z,6.03
2023-02-21T22:06:32.727Z,11.10
2023-02-21T22:09:01.962Z,11.37
2023-02-21T22:11:30.253Z,7.70
2023-02-21T22:13:58.857Z,5.90
2023-02-21T22:16:27.470Z,8.97
2023-02-21T22:18:56.501Z,9.90
2023-02-21T22:21:25.475Z,8.27
2023-02-21T22:23:56.171Z,8.80
2023-02-21T22:26:25.754Z,7.20
2023-02-21T22:28:54.896Z,7.50
2023-02-21T22:31:24.068Z,4.83
2023-02-21T22:33:52.752Z,5.43
2023-02-21T22:36:21.549Z,5.63
2023-02-21T22:38:51.620Z,4.40
2023-02-21T22:41:25.969Z,10.80
2023-02-21T22:43:55.967Z,5.20
2023-02-21T22:46:27.457Z,7.47
2023-02-21T22:48:56.497Z,8.30
2023-02-21T22:51:27.939Z,11.13
2023-02-21T22:53:58.978Z,7.03
2023-02-21T22:56:30.371Z,6.63
2023-02-21T22:59:01.236Z,6.47
2023-02-21T23:01:33.942Z,9.87
2023-02-21T23:04:15.987Z,6.27
2023-02-21T23:06:44.912Z,6.97
2023-02-21T23:09:15.429Z,7.83
2023-02-21T23:11:48.700Z,6.73
2023-02-21T23:14:19.526Z,11.13
2023-02-21T23:16:48.483Z,11.87
2023-02-21T23:19:19.321Z,10.97
2023-02-21T23:21:50.182Z,10.43
2023-02-21T23:24:21.083Z,7.17
2023-02-21T23:26:54.982Z,5.77
2023-02-21T23:29:26.072Z,8.80
2023-02-21T23:32:10.043Z,7.57
2023-02-21T23:34:41.845Z,5.70
2023-02-21T23:37:13.190Z,6.93
2023-02-21T23:39:42.379Z,8.17
2023-02-21T23:42:17.436Z,6.63
2023-02-21T23:44:46.106Z,16.93
2023-02-21T23:47:15.855Z,6.63
2023-02-21T23:49:44.925Z,7.90
2023-02-21T23:52:16.225Z,11.00
2023-02-21T23:54:47.357Z,7.27
2023-02-21T23:57:17.113Z,5.73
2023-02-21T23:59:46.064Z,5.27
